Indian Mills, New Jersey
Current Conditions -  °F | °C
As of 7:54 AM on Thursday 23 Oct 2014 (Local Time) from KVAY Reporting Station
Light Rain Light Rain  
Wind Chill: 50°   Ceiling: 2800
Heat Index: 50°   Visibility: 4mi
Dew Point: 47°   Wind: 8mph
Humidity: 89%   Direction: 310°NW
Pressure: 29.74"   Gusts: NA
Location:  39.7955°N, 74.6301°W
Report Text: KVAY 231154Z AUTO 31007KT 4SM -RA BR FEW011 FEW017 OVC028 10/08 A2974 RMK AO2 RAE24B46 SLP071 P0001 60002 70060 T01000083 10117 20100 51005
Loading
Personal Weather Stations






























Interactive Weather Map New forecast layout! Learn more

10-Day Weather Forecast

Advertisements
Track Severe Weather on mobile